createdAt,value
2024-03-15T00:00:20.470Z,62.13
2024-03-15T00:03:25.578Z,85.00
2024-03-15T00:06:29.683Z,93.80
2024-03-15T00:09:34.362Z,67.97
2024-03-15T00:12:38.091Z,63.00
2024-03-15T00:15:41.829Z,53.50
2024-03-15T00:18:45.770Z,69.00
2024-03-15T00:21:50.079Z,59.67
2024-03-15T00:24:53.494Z,59.33
2024-03-15T00:27:57.264Z,45.67
2024-03-15T00:31:02.056Z,57.05
2024-03-15T00:34:06.628Z,50.40
2024-03-15T00:37:10.621Z,49.03
2024-03-15T00:40:14.158Z,52.00
2024-03-15T00:43:18.798Z,47.55
2024-03-15T00:46:23.788Z,64.93
2024-03-15T00:49:27.394Z,62.00
2024-03-15T00:52:30.919Z,49.05
2024-03-15T00:55:35.189Z,68.85
2024-03-15T00:58:39.044Z,66.00
2024-03-15T01:01:44.279Z,55.42
2024-03-15T01:04:47.746Z,35.10
2024-03-15T01:07:52.285Z,37.75
2024-03-15T01:10:56.150Z,32.50
2024-03-15T01:14:00.382Z,32.20
2024-03-15T01:17:03.889Z,24.73
2024-03-15T01:20:09.982Z,28.13
2024-03-15T01:23:13.557Z,30.73
2024-03-15T01:26:17.429Z,42.88
2024-03-15T01:29:21.032Z,34.83
2024-03-15T01:32:24.697Z,32.55
2024-03-15T01:35:34.073Z,40.88
2024-03-15T01:38:37.617Z,35.25
2024-03-15T01:41:41.831Z,34.22
2024-03-15T01:44:54.034Z,34.13
2024-03-15T01:47:58.708Z,42.40
2024-03-15T01:51:02.387Z,41.63
2024-03-15T01:54:06.202Z,45.58
2024-03-15T01:57:10.467Z,46.50
2024-03-15T02:00:15.526Z,48.30
2024-03-15T02:03:19.088Z,47.17
2024-03-15T02:06:23.401Z,55.15
2024-03-15T02:09:30.497Z,43.38
2024-03-15T02:12:35.163Z,33.67
2024-03-15T02:15:38.677Z,36.23
2024-03-15T02:18:42.429Z,26.83
2024-03-15T02:21:52.195Z,24.17
2024-03-15T02:24:55.701Z,24.52
2024-03-15T02:27:59.328Z,35.72
2024-03-15T02:31:03.118Z,24.53
2024-03-15T02:34:06.728Z,25.85
2024-03-15T02:37:10.273Z,17.65
2024-03-15T02:40:14.377Z,21.10
2024-03-15T02:43:19.289Z,20.55
2024-03-15T02:46:22.809Z,24.60
2024-03-15T02:49:26.151Z,22.75
2024-03-15T02:52:30.520Z,29.20
2024-03-15T02:55:34.212Z,26.98
2024-03-15T02:58:38.129Z,35.25
2024-03-15T03:01:42.299Z,29.47
2024-03-15T03:04:45.848Z,30.73
2024-03-15T03:07:51.394Z,32.63
2024-03-15T03:10:55.554Z,25.08
2024-03-15T03:14:00.405Z,25.58
2024-03-15T03:17:04.180Z,23.93
2024-03-15T03:20:20.503Z,19.40
2024-03-15T03:23:25.656Z,17.13
2024-03-15T03:26:29.590Z,25.27
2024-03-15T03:29:33.216Z,24.15
2024-03-15T03:32:39.334Z,15.07
2024-03-15T03:35:43.094Z,16.67
2024-03-15T03:38:46.761Z,15.85
2024-03-15T03:41:50.590Z,14.32
2024-03-15T03:44:54.312Z,18.38
2024-03-15T03:47:58.153Z,20.13
2024-03-15T03:51:04.414Z,15.55
2024-03-15T03:54:08.368Z,16.02
2024-03-15T03:57:38.696Z,11.25
2024-03-15T04:00:48.215Z,10.05
2024-03-15T04:03:51.828Z,13.20
2024-03-15T04:06:55.528Z,12.07
2024-03-15T04:09:59.659Z,15.80
2024-03-15T04:13:03.242Z,8.48
2024-03-15T04:16:08.432Z,20.27
2024-03-15T04:19:11.985Z,7.63
2024-03-15T04:22:15.951Z,11.73
2024-03-15T04:25:21.793Z,10.45
2024-03-15T04:28:26.758Z,19.25
2024-03-15T04:31:33.459Z,11.50
2024-03-15T04:34:39.091Z,8.23
2024-03-15T04:37:42.733Z,8.25
2024-03-15T04:40:47.240Z,6.95
2024-03-15T04:43:51.567Z,8.05
2024-03-15T04:46:54.928Z,8.57
2024-03-15T04:50:00.999Z,13.77
2024-03-15T04:53:05.192Z,8.70
2024-03-15T04:56:09.346Z,9.90
2024-03-15T04:59:13.177Z,10.70
2024-03-15T05:02:16.993Z,10.15
2024-03-15T05:05:23.561Z,10.37
2024-03-15T05:08:28.648Z,8.88
2024-03-15T05:11:32.130Z,11.35
2024-03-15T05:14:35.635Z,14.35
2024-03-15T05:17:40.828Z,19.63
2024-03-15T05:20:44.702Z,10.50
2024-03-15T05:23:49.101Z,16.45
2024-03-15T05:26:52.820Z,10.68
2024-03-15T05:29:56.707Z,13.27
2024-03-15T05:33:00.024Z,13.38
2024-03-15T05:36:05.336Z,19.20
2024-03-15T05:39:12.797Z,22.48
2024-03-15T05:42:17.072Z,15.02
2024-03-15T05:45:22.897Z,15.60
2024-03-15T05:48:26.528Z,26.75
2024-03-15T05:51:30.487Z,15.83
2024-03-15T05:54:34.068Z,40.17
2024-03-15T05:57:37.510Z,14.55
2024-03-15T06:00:41.262Z,26.42
2024-03-15T06:03:45.220Z,30.58
2024-03-15T06:06:49.092Z,11.00
2024-03-15T06:09:52.697Z,7.50
2024-03-15T06:12:57.176Z,15.45
2024-03-15T06:16:00.800Z,10.05
2024-03-15T06:19:06.355Z,13.63
2024-03-15T06:22:10.028Z,14.90
2024-03-15T06:25:13.569Z,11.52
2024-03-15T06:28:17.245Z,7.40
2024-03-15T06:31:21.197Z,23.67
2024-03-15T06:34:25.559Z,9.45
2024-03-15T06:37:29.413Z,14.37
2024-03-15T06:40:33.059Z,11.23
2024-03-15T06:43:55.740Z,13.93
2024-03-15T06:47:11.422Z,13.23
2024-03-15T06:50:15.167Z,11.38
2024-03-15T06:53:21.865Z,25.33
2024-03-15T06:56:25.737Z,9.83
2024-03-15T06:59:29.473Z,17.88
2024-03-15T07:02:33.613Z,20.42
2024-03-15T07:05:37.239Z,15.80
2024-03-15T07:08:41.526Z,17.97
2024-03-15T07:11:49.932Z,12.00
2024-03-15T07:14:54.830Z,15.05
2024-03-15T07:18:06.717Z,21.83
2024-03-15T07:21:13.391Z,44.30
2024-03-15T07:24:17.043Z,20.20
2024-03-15T07:27:21.129Z,12.67
2024-03-15T07:30:26.276Z,20.02
2024-03-15T07:33:29.786Z,16.50
2024-03-15T07:36:34.259Z,28.50
2024-03-15T07:39:38.064Z,39.57
2024-03-15T07:42:43.550Z,25.27
2024-03-15T07:45:50.049Z,18.95
2024-03-15T07:48:53.653Z,19.17
2024-03-15T07:51:58.061Z,20.48
2024-03-15T07:55:01.787Z,12.50
2024-03-15T07:58:05.553Z,17.40
2024-03-15T08:01:12.331Z,18.10
2024-03-15T08:04:16.227Z,18.38
2024-03-15T08:07:21.911Z,13.25
2024-03-15T08:10:25.404Z,19.13
2024-03-15T08:13:30.632Z,21.35
2024-03-15T08:16:37.244Z,10.10
2024-03-15T08:19:41.465Z,29.90
2024-03-15T08:22:44.927Z,20.05
2024-03-15T08:25:48.561Z,19.23
2024-03-15T08:28:52.694Z,18.40
2024-03-15T08:31:56.572Z,30.15
2024-03-15T08:35:00.656Z,19.85
2024-03-15T08:38:04.836Z,25.98
2024-03-15T08:44:13.202Z,30.02
2024-03-15T08:47:20.134Z,29.88
2024-03-15T08:50:23.776Z,22.55
2024-03-15T08:53:28.028Z,30.95
2024-03-15T08:56:31.397Z,16.73
2024-03-15T08:59:35.838Z,16.42
2024-03-15T09:02:39.983Z,24.73
2024-03-15T09:05:43.578Z,22.77
2024-03-15T09:08:56.229Z,22.63
2024-03-15T09:12:00.436Z,29.77
2024-03-15T09:15:04.715Z,31.90
2024-03-15T09:18:10.757Z,30.23
2024-03-15T09:21:14.534Z,20.10
2024-03-15T09:24:19.946Z,25.58
2024-03-15T09:27:23.769Z,17.17
2024-03-15T09:30:31.178Z,16.80
2024-03-15T09:33:37.286Z,10.98
2024-03-15T09:36:41.073Z,15.73
2024-03-15T09:39:44.793Z,26.85
2024-03-15T09:42:53.414Z,38.50
2024-03-15T09:45:57.812Z,34.28
2024-03-15T09:49:02.267Z,25.95
2024-03-15T09:52:09.106Z,38.25
2024-03-15T09:55:24.569Z,54.03
2024-03-15T09:58:28.567Z,39.60
2024-03-15T10:01:34.533Z,34.13
2024-03-15T10:04:38.516Z,29.98
2024-03-15T10:07:42.213Z,35.75
2024-03-15T10:10:47.267Z,39.30
2024-03-15T10:13:51.223Z,148.30
2024-03-15T10:16:55.277Z,50.17
2024-03-15T10:19:59.934Z,87.15
2024-03-15T10:23:04.509Z,59.58
2024-03-15T10:26:09.204Z,55.05
2024-03-15T10:29:13.503Z,36.47
2024-03-15T10:32:16.997Z,69.78
2024-03-15T10:35:21.264Z,51.83
2024-03-15T10:38:24.628Z,47.65
2024-03-15T10:41:29.292Z,41.22
2024-03-15T10:44:34.581Z,60.27
2024-03-15T10:47:38.096Z,59.67
2024-03-15T10:50:44.738Z,77.90
2024-03-15T10:53:50.571Z,75.97
2024-03-15T10:56:54.153Z,85.30
2024-03-15T10:59:58.525Z,54.97
2024-03-15T11:03:27.367Z,55.17
2024-03-15T11:06:47.447Z,72.85
2024-03-15T11:09:56.122Z,74.00
2024-03-15T11:13:03.333Z,84.13
2024-03-15T11:16:20.502Z,90.50
2024-03-15T11:19:24.368Z,61.15
2024-03-15T11:22:28.440Z,49.90
2024-03-15T11:25:34.440Z,57.28
2024-03-15T11:28:40.137Z,53.95
2024-03-15T11:31:47.533Z,135.77
2024-03-15T11:34:51.736Z,152.77
2024-03-15T11:37:57.977Z,302.00
2024-03-15T11:41:02.429Z,797.42
2024-03-15T11:44:06.129Z,241.25
2024-03-15T11:47:10.960Z,199.53
2024-03-15T11:50:18.131Z,452.73
2024-03-15T11:53:24.140Z,404.00
2024-03-15T11:56:27.834Z,388.05
2024-03-15T11:59:50.231Z,514.70
2024-03-15T12:02:58.566Z,770.77
2024-03-15T12:06:02.566Z,356.88
2024-03-15T12:09:06.134Z,233.18
2024-03-15T12:12:09.696Z,199.80
2024-03-15T12:15:31.969Z,163.00
2024-03-15T12:18:36.482Z,138.20
2024-03-15T12:21:42.170Z,138.93
2024-03-15T12:24:45.535Z,144.50
2024-03-15T12:27:49.693Z,122.45
2024-03-15T12:30:55.257Z,109.57
2024-03-15T12:33:58.796Z,118.07
2024-03-15T12:37:02.274Z,129.90
2024-03-15T12:40:19.078Z,123.85
2024-03-15T12:43:22.540Z,116.85
2024-03-15T12:46:25.973Z,130.35
2024-03-15T12:49:29.573Z,116.17
2024-03-15T12:52:34.641Z,78.50
2024-03-15T12:55:38.114Z,84.28
2024-03-15T12:58:41.558Z,89.07
2024-03-15T13:01:45.267Z,79.90
2024-03-15T13:04:48.769Z,92.37
2024-03-15T13:07:55.117Z,100.53
2024-03-15T13:10:58.619Z,82.90
2024-03-15T13:14:02.298Z,88.13
2024-03-15T13:17:05.879Z,68.68
2024-03-15T13:20:17.453Z,50.90
2024-03-15T13:23:21.001Z,57.40
2024-03-15T13:26:27.524Z,53.55
2024-03-15T13:29:30.890Z,47.90
2024-03-15T13:32:34.411Z,59.30
2024-03-15T13:35:38.958Z,57.37
2024-03-15T13:38:43.934Z,64.85
2024-03-15T13:41:48.142Z,52.97
2024-03-15T13:44:51.568Z,67.18
2024-03-15T13:48:16.773Z,83.68
2024-03-15T13:51:20.388Z,61.93
2024-03-15T13:54:23.964Z,85.43
2024-03-15T13:57:27.866Z,68.30
2024-03-15T14:00:34.865Z,69.20
2024-03-15T14:03:38.795Z,75.40
2024-03-15T14:06:43.345Z,84.63
2024-03-15T14:09:46.787Z,141.63
2024-03-15T14:12:52.725Z,98.60
2024-03-15T14:15:57.014Z,86.43
2024-03-15T14:19:04.083Z,94.18
2024-03-15T14:22:11.532Z,105.90
2024-03-15T14:25:18.117Z,111.78
2024-03-15T14:28:21.765Z,108.53
2024-03-15T14:31:25.571Z,74.10
2024-03-15T14:34:28.892Z,170.77
2024-03-15T14:37:32.441Z,52.23
2024-03-15T14:40:40.448Z,75.15
2024-03-15T14:43:44.328Z,63.20
2024-03-15T14:46:48.782Z,68.60
2024-03-15T14:49:52.531Z,44.20
2024-03-15T14:52:56.917Z,32.67
2024-03-15T14:56:00.776Z,38.42
2024-03-15T14:59:06.499Z,50.85
2024-03-15T15:02:10.230Z,56.38
2024-03-15T15:05:14.018Z,67.28
2024-03-15T15:08:17.621Z,115.00
2024-03-15T15:11:21.170Z,134.25
2024-03-15T15:14:28.789Z,116.13
2024-03-15T15:17:32.567Z,123.53
2024-03-15T15:20:36.206Z,144.73
2024-03-15T15:23:40.109Z,113.43
2024-03-15T15:26:43.575Z,118.57
2024-03-15T15:29:47.378Z,124.63
2024-03-15T15:32:51.069Z,122.97
2024-03-15T15:35:54.474Z,132.85
2024-03-15T15:38:58.047Z,160.03
2024-03-15T15:42:01.589Z,131.50
2024-03-15T15:45:05.334Z,123.93
2024-03-15T15:48:09.784Z,113.82
2024-03-15T15:51:16.127Z,98.30
2024-03-15T15:54:19.645Z,81.63
2024-03-15T15:57:23.624Z,91.70
2024-03-15T16:00:27.257Z,93.72
2024-03-15T16:03:31.234Z,70.20
2024-03-15T16:06:34.821Z,71.30
2024-03-15T16:09:38.406Z,75.63
2024-03-15T16:12:42.482Z,61.65
2024-03-15T16:15:47.337Z,61.00
2024-03-15T16:18:51.659Z,60.58
2024-03-15T16:21:55.502Z,55.05
2024-03-15T16:24:59.680Z,50.23
2024-03-15T16:28:06.674Z,60.45
2024-03-15T16:31:10.247Z,61.42
2024-03-15T16:34:13.929Z,58.13
2024-03-15T16:37:18.363Z,62.47
2024-03-15T16:40:24.075Z,59.60
2024-03-15T16:43:28.459Z,59.63
2024-03-15T16:46:32.095Z,81.25
2024-03-15T16:49:35.584Z,101.85
2024-03-15T16:52:39.250Z,80.18
2024-03-15T16:55:43.985Z,117.20
2024-03-15T16:58:48.795Z,135.15
2024-03-15T17:01:52.319Z,141.70
2024-03-15T17:04:56.060Z,165.30
2024-03-15T17:08:00.054Z,184.38
2024-03-15T17:11:04.527Z,209.23
2024-03-15T17:14:08.342Z,223.93
2024-03-15T17:17:12.698Z,239.80
2024-03-15T17:20:18.121Z,253.73
2024-03-15T17:23:22.616Z,268.17
2024-03-15T17:26:26.526Z,279.83
2024-03-15T17:29:30.298Z,300.70
2024-03-15T17:32:33.873Z,287.00
2024-03-15T17:35:37.505Z,295.10
2024-03-15T17:38:42.323Z,241.38
2024-03-15T17:41:45.795Z,200.87
2024-03-15T17:44:50.108Z,185.80
2024-03-15T17:47:54.280Z,192.43
2024-03-15T17:50:57.917Z,198.20
2024-03-15T17:54:01.573Z,198.60
2024-03-15T17:57:05.080Z,212.03
2024-03-15T18:00:14.589Z,206.27
2024-03-15T18:03:18.304Z,240.40
2024-03-15T18:06:21.990Z,224.73
2024-03-15T18:09:28.066Z,222.70
2024-03-15T18:12:31.638Z,232.63
2024-03-15T18:15:34.954Z,208.68
2024-03-15T18:18:39.109Z,208.07
2024-03-15T18:21:42.850Z,200.30
2024-03-15T18:24:49.827Z,169.60
2024-03-15T18:27:55.157Z,191.60
2024-03-15T18:31:01.716Z,164.95
2024-03-15T18:34:05.783Z,162.52
2024-03-15T18:37:11.230Z,165.07
2024-03-15T18:40:15.130Z,158.30
2024-03-15T18:43:19.055Z,152.23
2024-03-15T18:46:23.089Z,149.85
2024-03-15T18:49:27.122Z,149.05
2024-03-15T18:52:30.949Z,153.18
2024-03-15T18:55:34.626Z,155.43
2024-03-15T18:58:38.754Z,166.47
2024-03-15T19:01:42.360Z,141.20
2024-03-15T19:04:48.942Z,134.65
2024-03-15T19:07:52.565Z,135.30
2024-03-15T19:10:56.344Z,146.98
2024-03-15T19:14:01.336Z,135.17
2024-03-15T19:17:05.069Z,117.85
2024-03-15T19:20:10.905Z,120.97
2024-03-15T19:23:14.673Z,99.47
2024-03-15T19:26:18.239Z,101.13
2024-03-15T19:29:23.398Z,106.43
2024-03-15T19:32:32.301Z,98.95
2024-03-15T19:35:36.082Z,97.47
2024-03-15T19:38:39.669Z,109.15
2024-03-15T19:41:43.237Z,89.50
2024-03-15T19:44:47.685Z,101.10
2024-03-15T19:47:51.058Z,103.00
2024-03-15T19:50:54.541Z,101.25
2024-03-15T19:53:58.111Z,97.03
2024-03-15T19:57:01.535Z,104.93
2024-03-15T20:00:07.098Z,95.30
2024-03-15T20:03:15.163Z,90.80
2024-03-15T20:06:19.182Z,83.20
2024-03-15T20:09:22.658Z,83.60
2024-03-15T20:12:26.390Z,86.00
2024-03-15T20:15:30.198Z,82.30
2024-03-15T20:18:34.912Z,93.43
2024-03-15T20:21:39.658Z,88.50
2024-03-15T20:24:43.106Z,85.45
2024-03-15T20:27:48.250Z,86.97
2024-03-15T20:30:53.833Z,100.20
2024-03-15T20:33:57.872Z,87.72
2024-03-15T20:37:01.445Z,68.50
2024-03-15T20:40:07.545Z,80.65
2024-03-15T20:43:12.318Z,74.95
2024-03-15T20:46:15.974Z,88.33
2024-03-15T20:49:21.835Z,84.85
2024-03-15T20:52:25.862Z,87.30
2024-03-15T20:55:29.521Z,76.65
2024-03-15T20:58:32.960Z,69.35
2024-03-15T21:01:36.513Z,72.67
2024-03-15T21:04:40.271Z,69.07
2024-03-15T21:07:43.973Z,82.85
2024-03-15T21:10:52.695Z,109.20
2024-03-15T21:13:56.282Z,118.20
2024-03-15T21:17:00.780Z,133.90
2024-03-15T21:20:06.825Z,119.72
2024-03-15T21:23:10.175Z,105.63
2024-03-15T21:26:13.944Z,107.07
2024-03-15T21:29:17.309Z,96.13
2024-03-15T21:32:20.806Z,104.13
2024-03-15T21:35:24.828Z,88.18
2024-03-15T21:38:29.220Z,70.55
2024-03-15T21:41:33.708Z,65.57
2024-03-15T21:44:43.783Z,71.67
2024-03-15T21:47:50.041Z,64.45
2024-03-15T21:50:54.701Z,63.58
2024-03-15T21:53:58.811Z,64.07
2024-03-15T21:57:02.390Z,62.33
2024-03-15T22:00:07.048Z,104.63
2024-03-15T22:03:15.958Z,83.03
2024-03-15T22:06:19.614Z,107.13
2024-03-15T22:09:23.286Z,75.07
2024-03-15T22:12:26.969Z,41.57
2024-03-15T22:15:33.645Z,69.75
2024-03-15T22:18:37.141Z,53.67
2024-03-15T22:21:40.913Z,71.40
2024-03-15T22:24:44.922Z,49.92
2024-03-15T22:27:48.564Z,67.03
2024-03-15T22:30:52.194Z,64.22
2024-03-15T22:33:55.819Z,127.88
2024-03-15T22:37:02.801Z,114.10
2024-03-15T22:40:06.941Z,90.47
2024-03-15T22:43:10.750Z,81.50
2024-03-15T22:46:14.509Z,88.63
2024-03-15T22:49:18.156Z,51.60
2024-03-15T22:52:21.841Z,58.88
2024-03-15T22:55:25.491Z,65.07
2024-03-15T22:58:29.376Z,111.68
2024-03-15T23:01:39.627Z,71.53
2024-03-15T23:04:43.320Z,101.30
2024-03-15T23:07:46.685Z,48.28
2024-03-15T23:10:50.825Z,46.38
2024-03-15T23:13:54.400Z,61.35
2024-03-15T23:17:01.198Z,50.53
2024-03-15T23:20:07.068Z,34.63
2024-03-15T23:23:11.315Z,40.42
2024-03-15T23:26:14.950Z,44.80
2024-03-15T23:29:18.728Z,59.55
2024-03-15T23:32:22.241Z,56.78
2024-03-15T23:35:25.892Z,56.70
2024-03-15T23:38:29.367Z,50.28
2024-03-15T23:41:34.159Z,55.75
2024-03-15T23:44:40.989Z,38.33
2024-03-15T23:47:45.119Z,53.83
2024-03-15T23:50:48.530Z,37.08
2024-03-15T23:53:52.168Z,62.30
2024-03-15T23:56:55.789Z,44.45
2024-03-15T23:59:59.393Z,41.55
